sensor_id;sensor_type;location;lat;lon;timestamp;temperature;humidity
60860;DHT22;46694;54.382;9.708;2024-02-26T00:02:16;4.80;99.90
60860;DHT22;46694;54.382;9.708;2024-02-26T00:04:44;4.90;99.90
60860;DHT22;46694;54.382;9.708;2024-02-26T00:07:10;4.80;99.90
60860;DHT22;46694;54.382;9.708;2024-02-26T00:09:35;4.80;99.90
60860;DHT22;46694;54.382;9.708;2024-02-26T00:12:03;4.80;99.90
60860;DHT22;46694;54.382;9.708;2024-02-26T00:14:32;4.70;99.90
60860;DHT22;46694;54.382;9.708;2024-02-26T00:16:59;4.70;99.90
60860;DHT22;46694;54.382;9.708;2024-02-26T00:19:25;4.70;99.90
60860;DHT22;46694;54.382;9.708;2024-02-26T00:21:57;4.60;99.90
60860;DHT22;46694;54.382;9.708;2024-02-26T00:24:23;4.60;99.90
60860;DHT22;46694;54.382;9.708;2024-02-26T00:26:48;4.50;99.90
60860;DHT22;46694;54.382;9.708;2024-02-26T00:29:18;4.50;99.90
60860;DHT22;46694;54.382;9.708;2024-02-26T00:31:45;4.50;99.90
60860;DHT22;46694;54.382;9.708;2024-02-26T00:34:11;4.50;99.90
60860;DHT22;46694;54.382;9.708;2024-02-26T00:36:36;4.50;99.90
60860;DHT22;46694;54.382;9.708;2024-02-26T00:39:02;4.40;99.90
60860;DHT22;46694;54.382;9.708;2024-02-26T00:41:29;4.40;99.90
60860;DHT22;46694;54.382;9.708;2024-02-26T00:43:55;4.40;99.90
60860;DHT22;46694;54.382;9.708;2024-02-26T00:46:21;4.30;99.90
60860;DHT22;46694;54.382;9.708;2024-02-26T00:48:47;4.30;99.90
60860;DHT22;46694;54.382;9.708;2024-02-26T00:51:12;4.30;99.90
60860;DHT22;46694;54.382;9.708;2024-02-26T00:53:38;4.30;99.90
60860;DHT22;46694;54.382;9.708;2024-02-26T00:56:04;4.30;99.90
60860;DHT22;46694;54.382;9.708;2024-02-26T00:58:30;4.30;99.90
60860;DHT22;46694;54.382;9.708;2024-02-26T01:00:56;4.20;99.90
60860;DHT22;46694;54.382;9.708;2024-02-26T01:03:22;4.20;99.90
60860;DHT22;46694;54.382;9.708;2024-02-26T01:05:48;4.20;99.90
60860;DHT22;46694;54.382;9.708;2024-02-26T01:08:13;4.20;99.90
60860;DHT22;46694;54.382;9.708;2024-02-26T01:10:39;4.10;99.90
60860;DHT22;46694;54.382;9.708;2024-02-26T01:13:05;4.10;99.90
60860;DHT22;46694;54.382;9.708;2024-02-26T01:15:33;4.00;99.90
60860;DHT22;46694;54.382;9.708;2024-02-26T01:17:59;4.00;99.90
60860;DHT22;46694;54.382;9.708;2024-02-26T01:20:24;3.90;99.90
60860;DHT22;46694;54.382;9.708;2024-02-26T01:22:50;3.90;99.90
60860;DHT22;46694;54.382;9.708;2024-02-26T01:25:16;3.90;99.90
60860;DHT22;46694;54.382;9.708;2024-02-26T01:27:43;3.90;99.90
60860;DHT22;46694;54.382;9.708;2024-02-26T01:30:09;3.90;99.90
60860;DHT22;46694;54.382;9.708;2024-02-26T01:32:36;3.80;99.90
60860;DHT22;46694;54.382;9.708;2024-02-26T01:35:02;3.80;99.90
60860;DHT22;46694;54.382;9.708;2024-02-26T01:37:36;3.80;99.90
60860;DHT22;46694;54.382;9.708;2024-02-26T01:40:02;3.80;99.90
60860;DHT22;46694;54.382;9.708;2024-02-26T01:42:32;3.80;99.90
60860;DHT22;46694;54.382;9.708;2024-02-26T01:44:59;3.70;99.90
60860;DHT22;46694;54.382;9.708;2024-02-26T01:47:25;3.70;99.90
60860;DHT22;46694;54.382;9.708;2024-02-26T01:50:05;3.70;99.90
60860;DHT22;46694;54.382;9.708;2024-02-26T01:52:32;3.70;99.90
60860;DHT22;46694;54.382;9.708;2024-02-26T01:54:58;3.60;99.90
60860;DHT22;46694;54.382;9.708;2024-02-26T01:57:27;3.60;99.90
60860;DHT22;46694;54.382;9.708;2024-02-26T01:59:53;3.60;99.90
60860;DHT22;46694;54.382;9.708;2024-02-26T02:02:19;3.60;99.90
60860;DHT22;46694;54.382;9.708;2024-02-26T02:04:46;3.50;99.90
60860;DHT22;46694;54.382;9.708;2024-02-26T02:07:12;3.50;99.90
60860;DHT22;46694;54.382;9.708;2024-02-26T02:09:38;3.50;99.90
60860;DHT22;46694;54.382;9.708;2024-02-26T02:12:04;3.40;99.90
60860;DHT22;46694;54.382;9.708;2024-02-26T02:14:31;3.40;99.90
60860;DHT22;46694;54.382;9.708;2024-02-26T02:16:57;3.40;99.90
60860;DHT22;46694;54.382;9.708;2024-02-26T02:19:23;3.40;99.90
60860;DHT22;46694;54.382;9.708;2024-02-26T02:21:49;3.30;99.90
60860;DHT22;46694;54.382;9.708;2024-02-26T02:24:15;3.30;99.90
60860;DHT22;46694;54.382;9.708;2024-02-26T02:26:41;3.20;99.90
60860;DHT22;46694;54.382;9.708;2024-02-26T02:29:07;3.20;99.90
60860;DHT22;46694;54.382;9.708;2024-02-26T02:31:34;3.20;99.90
60860;DHT22;46694;54.382;9.708;2024-02-26T02:34:00;3.20;99.90
60860;DHT22;46694;54.382;9.708;2024-02-26T02:36:26;3.20;99.90
60860;DHT22;46694;54.382;9.708;2024-02-26T02:38:52;3.20;99.90
60860;DHT22;46694;54.382;9.708;2024-02-26T02:41:19;3.20;99.90
60860;DHT22;46694;54.382;9.708;2024-02-26T02:43:48;3.20;99.90
60860;DHT22;46694;54.382;9.708;2024-02-26T02:46:13;3.10;99.90
60860;DHT22;46694;54.382;9.708;2024-02-26T02:48:41;3.10;99.90
60860;DHT22;46694;54.382;9.708;2024-02-26T02:51:09;3.10;99.90
60860;DHT22;46694;54.382;9.708;2024-02-26T02:53:34;3.00;99.90
60860;DHT22;46694;54.382;9.708;2024-02-26T02:56:00;3.00;99.90
60860;DHT22;46694;54.382;9.708;2024-02-26T02:58:26;3.00;99.90
60860;DHT22;46694;54.382;9.708;2024-02-26T03:00:52;3.00;99.90
60860;DHT22;46694;54.382;9.708;2024-02-26T03:03:20;3.00;99.90
60860;DHT22;46694;54.382;9.708;2024-02-26T03:06:11;2.90;99.90
60860;DHT22;46694;54.382;9.708;2024-02-26T03:08:37;2.90;99.90
60860;DHT22;46694;54.382;9.708;2024-02-26T03:11:05;2.90;99.90
60860;DHT22;46694;54.382;9.708;2024-02-26T03:13:31;2.90;99.90
60860;DHT22;46694;54.382;9.708;2024-02-26T03:15:57;2.90;99.90
60860;DHT22;46694;54.382;9.708;2024-02-26T03:18:23;2.90;99.90
60860;DHT22;46694;54.382;9.708;2024-02-26T03:20:49;2.90;99.90
60860;DHT22;46694;54.382;9.708;2024-02-26T03:23:15;2.90;99.90
60860;DHT22;46694;54.382;9.708;2024-02-26T03:25:45;2.80;99.90
60860;DHT22;46694;54.382;9.708;2024-02-26T03:28:14;2.80;99.90
60860;DHT22;46694;54.382;9.708;2024-02-26T03:30:39;2.80;99.90
60860;DHT22;46694;54.382;9.708;2024-02-26T03:33:05;2.70;99.90
60860;DHT22;46694;54.382;9.708;2024-02-26T03:35:31;2.70;99.90
60860;DHT22;46694;54.382;9.708;2024-02-26T03:37:57;2.80;99.90
60860;DHT22;46694;54.382;9.708;2024-02-26T03:40:23;2.70;99.90
60860;DHT22;46694;54.382;9.708;2024-02-26T03:42:49;2.70;99.90
60860;DHT22;46694;54.382;9.708;2024-02-26T03:45:16;2.70;99.90
60860;DHT22;46694;54.382;9.708;2024-02-26T03:47:41;2.70;99.90
60860;DHT22;46694;54.382;9.708;2024-02-26T03:50:08;2.70;99.90
60860;DHT22;46694;54.382;9.708;2024-02-26T03:52:33;2.70;99.90
60860;DHT22;46694;54.382;9.708;2024-02-26T03:54:59;2.60;99.90
60860;DHT22;46694;54.382;9.708;2024-02-26T03:57:25;2.60;99.90
60860;DHT22;46694;54.382;9.708;2024-02-26T03:59:51;2.60;99.90
60860;DHT22;46694;54.382;9.708;2024-02-26T04:02:17;2.50;99.90
60860;DHT22;46694;54.382;9.708;2024-02-26T04:04:45;2.50;99.90
60860;DHT22;46694;54.382;9.708;2024-02-26T04:07:12;2.50;99.90
60860;DHT22;46694;54.382;9.708;2024-02-26T04:09:38;2.50;99.90
60860;DHT22;46694;54.382;9.708;2024-02-26T04:12:05;2.50;99.90
60860;DHT22;46694;54.382;9.708;2024-02-26T04:14:31;2.50;99.90
60860;DHT22;46694;54.382;9.708;2024-02-26T04:16:57;2.50;99.90
60860;DHT22;46694;54.382;9.708;2024-02-26T04:19:23;2.50;99.90
60860;DHT22;46694;54.382;9.708;2024-02-26T04:21:48;2.40;99.90
60860;DHT22;46694;54.382;9.708;2024-02-26T04:24:14;2.40;99.90
60860;DHT22;46694;54.382;9.708;2024-02-26T04:26:40;2.40;99.90
60860;DHT22;46694;54.382;9.708;2024-02-26T04:29:06;2.40;99.90
60860;DHT22;46694;54.382;9.708;2024-02-26T04:31:32;2.40;99.90
60860;DHT22;46694;54.382;9.708;2024-02-26T04:33:58;2.40;99.90
60860;DHT22;46694;54.382;9.708;2024-02-26T04:36:24;2.40;99.90
60860;DHT22;46694;54.382;9.708;2024-02-26T04:38:51;2.50;99.90
60860;DHT22;46694;54.382;9.708;2024-02-26T04:41:19;2.40;99.90
60860;DHT22;46694;54.382;9.708;2024-02-26T04:43:45;2.40;99.90
60860;DHT22;46694;54.382;9.708;2024-02-26T04:46:11;2.40;99.90
60860;DHT22;46694;54.382;9.708;2024-02-26T04:48:37;2.40;99.90
60860;DHT22;46694;54.382;9.708;2024-02-26T04:51:04;2.40;99.90
60860;DHT22;46694;54.382;9.708;2024-02-26T04:53:31;2.30;99.90
60860;DHT22;46694;54.382;9.708;2024-02-26T04:55:57;2.30;99.90
60860;DHT22;46694;54.382;9.708;2024-02-26T04:58:23;2.30;99.90
60860;DHT22;46694;54.382;9.708;2024-02-26T05:00:49;2.30;99.90
60860;DHT22;46694;54.382;9.708;2024-02-26T05:03:14;2.30;99.90
60860;DHT22;46694;54.382;9.708;2024-02-26T05:05:44;2.30;99.90
60860;DHT22;46694;54.382;9.708;2024-02-26T05:08:10;2.30;99.90
60860;DHT22;46694;54.382;9.708;2024-02-26T05:10:37;2.30;99.90
60860;DHT22;46694;54.382;9.708;2024-02-26T05:13:06;2.20;99.90
60860;DHT22;46694;54.382;9.708;2024-02-26T05:15:32;2.20;99.90
60860;DHT22;46694;54.382;9.708;2024-02-26T05:17:58;2.20;99.90
60860;DHT22;46694;54.382;9.708;2024-02-26T05:20:24;2.20;99.90
60860;DHT22;46694;54.382;9.708;2024-02-26T05:22:50;2.20;99.90
60860;DHT22;46694;54.382;9.708;2024-02-26T05:25:16;2.20;99.90
60860;DHT22;46694;54.382;9.708;2024-02-26T05:27:43;2.20;99.90
60860;DHT22;46694;54.382;9.708;2024-02-26T05:30:10;2.20;99.90
60860;DHT22;46694;54.382;9.708;2024-02-26T05:32:37;2.10;99.90
60860;DHT22;46694;54.382;9.708;2024-02-26T05:35:03;2.10;99.90
60860;DHT22;46694;54.382;9.708;2024-02-26T05:37:30;2.10;99.90
60860;DHT22;46694;54.382;9.708;2024-02-26T05:39:55;2.10;99.90
60860;DHT22;46694;54.382;9.708;2024-02-26T05:42:21;2.10;99.90
60860;DHT22;46694;54.382;9.708;2024-02-26T05:44:47;2.10;99.90
60860;DHT22;46694;54.382;9.708;2024-02-26T05:47:13;2.10;99.90
60860;DHT22;46694;54.382;9.708;2024-02-26T05:49:39;2.10;99.90
60860;DHT22;46694;54.382;9.708;2024-02-26T05:52:06;2.10;99.90
60860;DHT22;46694;54.382;9.708;2024-02-26T05:54:32;2.10;99.90
60860;DHT22;46694;54.382;9.708;2024-02-26T05:56:58;2.10;99.90
60860;DHT22;46694;54.382;9.708;2024-02-26T05:59:23;2.00;99.90
60860;DHT22;46694;54.382;9.708;2024-02-26T06:01:49;2.00;99.90
60860;DHT22;46694;54.382;9.708;2024-02-26T06:04:15;2.00;99.90
60860;DHT22;46694;54.382;9.708;2024-02-26T06:06:44;2.00;99.90
60860;DHT22;46694;54.382;9.708;2024-02-26T06:09:11;2.00;99.90
60860;DHT22;46694;54.382;9.708;2024-02-26T06:11:37;2.00;99.90
60860;DHT22;46694;54.382;9.708;2024-02-26T06:14:03;2.00;99.90
60860;DHT22;46694;54.382;9.708;2024-02-26T06:16:29;2.00;99.90
60860;DHT22;46694;54.382;9.708;2024-02-26T06:18:55;2.00;99.90
60860;DHT22;46694;54.382;9.708;2024-02-26T06:21:22;2.00;99.90
60860;DHT22;46694;54.382;9.708;2024-02-26T06:23:48;2.00;99.90
60860;DHT22;46694;54.382;9.708;2024-02-26T06:26:15;2.00;99.90
60860;DHT22;46694;54.382;9.708;2024-02-26T06:28:40;2.00;99.90
60860;DHT22;46694;54.382;9.708;2024-02-26T06:31:06;2.00;99.90
60860;DHT22;46694;54.382;9.708;2024-02-26T06:33:32;2.00;99.90
60860;DHT22;46694;54.382;9.708;2024-02-26T06:35:59;2.00;99.90
60860;DHT22;46694;54.382;9.708;2024-02-26T06:38:25;2.00;99.90
60860;DHT22;46694;54.382;9.708;2024-02-26T06:40:51;2.00;99.90
60860;DHT22;46694;54.382;9.708;2024-02-26T06:43:17;2.00;99.90
60860;DHT22;46694;54.382;9.708;2024-02-26T06:45:42;2.00;99.90
60860;DHT22;46694;54.382;9.708;2024-02-26T06:48:08;2.00;99.90
60860;DHT22;46694;54.382;9.708;2024-02-26T06:50:34;2.00;99.90
60860;DHT22;46694;54.382;9.708;2024-02-26T06:53:00;2.00;99.90
60860;DHT22;46694;54.382;9.708;2024-02-26T06:55:26;2.00;99.90
60860;DHT22;46694;54.382;9.708;2024-02-26T06:57:52;2.00;99.90
60860;DHT22;46694;54.382;9.708;2024-02-26T07:00:18;2.10;99.90
60860;DHT22;46694;54.382;9.708;2024-02-26T07:02:44;2.10;99.90
60860;DHT22;46694;54.382;9.708;2024-02-26T07:05:10;2.10;99.90
60860;DHT22;46694;54.382;9.708;2024-02-26T07:07:36;2.10;99.90
60860;DHT22;46694;54.382;9.708;2024-02-26T07:10:03;2.20;99.90
60860;DHT22;46694;54.382;9.708;2024-02-26T07:12:31;2.20;99.90
60860;DHT22;46694;54.382;9.708;2024-02-26T07:14:57;2.30;99.90
60860;DHT22;46694;54.382;9.708;2024-02-26T07:17:23;2.40;99.90
60860;DHT22;46694;54.382;9.708;2024-02-26T07:19:50;2.50;99.90
60860;DHT22;46694;54.382;9.708;2024-02-26T07:22:16;2.50;99.90
60860;DHT22;46694;54.382;9.708;2024-02-26T07:24:41;2.60;99.90
60860;DHT22;46694;54.382;9.708;2024-02-26T07:27:07;2.60;99.90
60860;DHT22;46694;54.382;9.708;2024-02-26T07:29:33;2.60;99.90
60860;DHT22;46694;54.382;9.708;2024-02-26T07:31:59;2.70;99.90
60860;DHT22;46694;54.382;9.708;2024-02-26T07:34:25;2.70;99.90
60860;DHT22;46694;54.382;9.708;2024-02-26T07:36:55;2.70;99.90
60860;DHT22;46694;54.382;9.708;2024-02-26T07:39:22;2.80;99.90
60860;DHT22;46694;54.382;9.708;2024-02-26T07:41:48;2.90;99.90
60860;DHT22;46694;54.382;9.708;2024-02-26T07:44:17;2.90;99.90
60860;DHT22;46694;54.382;9.708;2024-02-26T07:46:43;3.00;99.90
60860;DHT22;46694;54.382;9.708;2024-02-26T07:49:09;3.00;99.90
60860;DHT22;46694;54.382;9.708;2024-02-26T07:51:35;3.10;99.90
60860;DHT22;46694;54.382;9.708;2024-02-26T07:54:01;3.20;99.90
60860;DHT22;46694;54.382;9.708;2024-02-26T07:56:27;3.20;99.90
60860;DHT22;46694;54.382;9.708;2024-02-26T07:58:53;3.40;99.90
60860;DHT22;46694;54.382;9.708;2024-02-26T08:01:19;3.70;99.90
60860;DHT22;46694;54.382;9.708;2024-02-26T08:03:44;3.90;99.90
60860;DHT22;46694;54.382;9.708;2024-02-26T08:06:10;3.90;99.90
60860;DHT22;46694;54.382;9.708;2024-02-26T08:08:42;4.10;99.90
60860;DHT22;46694;54.382;9.708;2024-02-26T08:11:09;4.10;99.90
60860;DHT22;46694;54.382;9.708;2024-02-26T08:13:35;4.20;99.90
60860;DHT22;46694;54.382;9.708;2024-02-26T08:16:01;4.30;99.90
60860;DHT22;46694;54.382;9.708;2024-02-26T08:18:27;4.40;99.90
60860;DHT22;46694;54.382;9.708;2024-02-26T08:20:53;4.40;99.90
60860;DHT22;46694;54.382;9.708;2024-02-26T08:23:19;4.50;99.90
60860;DHT22;46694;54.382;9.708;2024-02-26T08:25:45;4.50;99.90
60860;DHT22;46694;54.382;9.708;2024-02-26T08:28:11;4.50;99.90
60860;DHT22;46694;54.382;9.708;2024-02-26T08:30:39;4.50;99.90
60860;DHT22;46694;54.382;9.708;2024-02-26T08:33:04;4.60;99.90
60860;DHT22;46694;54.382;9.708;2024-02-26T08:35:30;4.50;99.90
60860;DHT22;46694;54.382;9.708;2024-02-26T08:37:56;4.50;99.90
60860;DHT22;46694;54.382;9.708;2024-02-26T08:40:22;4.50;99.90
60860;DHT22;46694;54.382;9.708;2024-02-26T08:42:48;4.50;99.90
60860;DHT22;46694;54.382;9.708;2024-02-26T08:45:14;4.50;99.90
60860;DHT22;46694;54.382;9.708;2024-02-26T08:47:40;4.50;99.90
60860;DHT22;46694;54.382;9.708;2024-02-26T08:50:06;4.60;99.90
60860;DHT22;46694;54.382;9.708;2024-02-26T08:52:32;4.60;99.90
60860;DHT22;46694;54.382;9.708;2024-02-26T08:55:04;4.70;99.90
60860;DHT22;46694;54.382;9.708;2024-02-26T08:57:31;4.80;99.90
60860;DHT22;46694;54.382;9.708;2024-02-26T09:00:00;4.90;99.90
60860;DHT22;46694;54.382;9.708;2024-02-26T09:02:26;4.90;99.90
60860;DHT22;46694;54.382;9.708;2024-02-26T09:04:52;5.00;99.90
60860;DHT22;46694;54.382;9.708;2024-02-26T09:07:21;5.10;99.90
60860;DHT22;46694;54.382;9.708;2024-02-26T09:09:47;5.10;99.90
60860;DHT22;46694;54.382;9.708;2024-02-26T09:12:13;5.10;99.90
60860;DHT22;46694;54.382;9.708;2024-02-26T09:14:39;5.10;99.90
60860;DHT22;46694;54.382;9.708;2024-02-26T09:17:05;5.10;99.90
60860;DHT22;46694;54.382;9.708;2024-02-26T09:24:29;5.10;99.90
60860;DHT22;46694;54.382;9.708;2024-02-26T09:26:55;5.10;99.90
60860;DHT22;46694;54.382;9.708;2024-02-26T09:29:21;5.10;99.90
60860;DHT22;46694;54.382;9.708;2024-02-26T09:31:47;5.10;99.90
60860;DHT22;46694;54.382;9.708;2024-02-26T09:34:13;5.20;99.90
60860;DHT22;46694;54.382;9.708;2024-02-26T09:36:39;5.30;99.90
60860;DHT22;46694;54.382;9.708;2024-02-26T09:39:05;5.40;99.90
60860;DHT22;46694;54.382;9.708;2024-02-26T09:41:33;5.50;99.90
60860;DHT22;46694;54.382;9.708;2024-02-26T09:43:59;5.60;99.90
60860;DHT22;46694;54.382;9.708;2024-02-26T09:46:28;5.60;99.90
60860;DHT22;46694;54.382;9.708;2024-02-26T09:48:54;5.70;99.90
60860;DHT22;46694;54.382;9.708;2024-02-26T09:51:23;5.70;99.90
60860;DHT22;46694;54.382;9.708;2024-02-26T09:53:55;5.80;99.90
60860;DHT22;46694;54.382;9.708;2024-02-26T09:56:22;5.80;99.90
60860;DHT22;46694;54.382;9.708;2024-02-26T09:58:48;5.80;99.90
60860;DHT22;46694;54.382;9.708;2024-02-26T10:01:20;5.90;99.90
60860;DHT22;46694;54.382;9.708;2024-02-26T10:06:15;5.80;99.90
60860;DHT22;46694;54.382;9.708;2024-02-26T10:08:42;5.80;99.90
60860;DHT22;46694;54.382;9.708;2024-02-26T10:11:08;5.80;99.90
60860;DHT22;46694;54.382;9.708;2024-02-26T10:13:35;5.90;99.90
60860;DHT22;46694;54.382;9.708;2024-02-26T10:16:02;5.80;99.90
60860;DHT22;46694;54.382;9.708;2024-02-26T10:18:51;5.90;99.90
60860;DHT22;46694;54.382;9.708;2024-02-26T10:21:22;5.90;99.90
60860;DHT22;46694;54.382;9.708;2024-02-26T10:23:48;5.90;99.90
60860;DHT22;46694;54.382;9.708;2024-02-26T10:26:16;5.90;99.90
60860;DHT22;46694;54.382;9.708;2024-02-26T10:28:43;6.00;99.90
60860;DHT22;46694;54.382;9.708;2024-02-26T10:31:10;6.00;99.90
60860;DHT22;46694;54.382;9.708;2024-02-26T10:33:37;6.10;99.90
60860;DHT22;46694;54.382;9.708;2024-02-26T10:36:05;6.20;99.90
60860;DHT22;46694;54.382;9.708;2024-02-26T10:38:36;6.40;99.90
60860;DHT22;46694;54.382;9.708;2024-02-26T10:41:03;6.50;99.90
60860;DHT22;46694;54.382;9.708;2024-02-26T10:43:30;6.60;99.90
60860;DHT22;46694;54.382;9.708;2024-02-26T10:45:56;6.70;99.90
60860;DHT22;46694;54.382;9.708;2024-02-26T10:48:23;6.80;99.90
60860;DHT22;46694;54.382;9.708;2024-02-26T10:50:49;6.90;99.90
60860;DHT22;46694;54.382;9.708;2024-02-26T10:53:29;7.00;99.90
60860;DHT22;46694;54.382;9.708;2024-02-26T10:56:01;7.00;99.90
60860;DHT22;46694;54.382;9.708;2024-02-26T10:58:28;7.00;99.90
60860;DHT22;46694;54.382;9.708;2024-02-26T11:00:56;7.00;99.90
60860;DHT22;46694;54.382;9.708;2024-02-26T11:03:23;7.00;99.90
60860;DHT22;46694;54.382;9.708;2024-02-26T11:05:50;7.00;99.90
60860;DHT22;46694;54.382;9.708;2024-02-26T11:08:18;7.10;99.90
60860;DHT22;46694;54.382;9.708;2024-02-26T11:10:52;7.10;99.90
60860;DHT22;46694;54.382;9.708;2024-02-26T11:13:19;7.10;99.90
60860;DHT22;46694;54.382;9.708;2024-02-26T11:15:47;7.10;99.90
60860;DHT22;46694;54.382;9.708;2024-02-26T11:18:15;7.10;99.90
60860;DHT22;46694;54.382;9.708;2024-02-26T11:20:44;7.20;99.90
60860;DHT22;46694;54.382;9.708;2024-02-26T11:23:11;7.40;99.90
60860;DHT22;46694;54.382;9.708;2024-02-26T11:25:37;7.50;99.90
60860;DHT22;46694;54.382;9.708;2024-02-26T11:28:08;7.60;99.90
60860;DHT22;46694;54.382;9.708;2024-02-26T11:30:38;7.60;99.90
60860;DHT22;46694;54.382;9.708;2024-02-26T11:33:10;7.70;99.90
60860;DHT22;46694;54.382;9.708;2024-02-26T11:35:38;7.80;99.90
60860;DHT22;46694;54.382;9.708;2024-02-26T11:38:04;7.90;99.90
60860;DHT22;46694;54.382;9.708;2024-02-26T11:40:33;8.00;99.90
60860;DHT22;46694;54.382;9.708;2024-02-26T11:43:06;7.90;99.90
60860;DHT22;46694;54.382;9.708;2024-02-26T11:48:21;7.90;99.90
60860;DHT22;46694;54.382;9.708;2024-02-26T11:50:55;7.80;99.90
60860;DHT22;46694;54.382;9.708;2024-02-26T11:53:29;7.80;99.90
60860;DHT22;46694;54.382;9.708;2024-02-26T11:58:47;7.90;99.90
60860;DHT22;46694;54.382;9.708;2024-02-26T12:01:40;8.00;99.90
60860;DHT22;46694;54.382;9.708;2024-02-26T12:04:21;8.10;99.90
60860;DHT22;46694;54.382;9.708;2024-02-26T12:06:55;8.10;99.90
60860;DHT22;46694;54.382;9.708;2024-02-26T12:09:41;8.20;99.90
60860;DHT22;46694;54.382;9.708;2024-02-26T12:12:17;8.20;99.90
60860;DHT22;46694;54.382;9.708;2024-02-26T12:14:52;8.30;99.90
60860;DHT22;46694;54.382;9.708;2024-02-26T12:17:23;8.40;99.90
60860;DHT22;46694;54.382;9.708;2024-02-26T12:19:51;8.40;99.90
60860;DHT22;46694;54.382;9.708;2024-02-26T12:22:18;8.40;99.90
60860;DHT22;46694;54.382;9.708;2024-02-26T12:24:45;8.40;99.90
60860;DHT22;46694;54.382;9.708;2024-02-26T12:27:11;8.50;99.90
60860;DHT22;46694;54.382;9.708;2024-02-26T12:29:37;8.80;99.90
60860;DHT22;46694;54.382;9.708;2024-02-26T12:32:04;8.90;99.90
60860;DHT22;46694;54.382;9.708;2024-02-26T12:34:31;9.00;99.90
60860;DHT22;46694;54.382;9.708;2024-02-26T12:36:58;9.00;99.90
60860;DHT22;46694;54.382;9.708;2024-02-26T12:39:24;9.10;99.90
60860;DHT22;46694;54.382;9.708;2024-02-26T12:41:50;9.10;99.90
60860;DHT22;46694;54.382;9.708;2024-02-26T12:44:16;9.10;99.90
60860;DHT22;46694;54.382;9.708;2024-02-26T12:46:42;9.10;99.90
60860;DHT22;46694;54.382;9.708;2024-02-26T12:49:08;9.10;99.90
60860;DHT22;46694;54.382;9.708;2024-02-26T12:51:40;9.10;99.90
60860;DHT22;46694;54.382;9.708;2024-02-26T12:54:07;9.10;99.90
60860;DHT22;46694;54.382;9.708;2024-02-26T12:56:34;9.10;99.90
60860;DHT22;46694;54.382;9.708;2024-02-26T12:59:00;9.10;99.90
60860;DHT22;46694;54.382;9.708;2024-02-26T13:01:27;9.10;99.90
60860;DHT22;46694;54.382;9.708;2024-02-26T13:03:53;9.00;99.90
60860;DHT22;46694;54.382;9.708;2024-02-26T13:06:20;9.00;99.90
60860;DHT22;46694;54.382;9.708;2024-02-26T13:08:47;9.00;99.90
60860;DHT22;46694;54.382;9.708;2024-02-26T13:11:14;9.00;99.90
60860;DHT22;46694;54.382;9.708;2024-02-26T13:13:40;9.00;99.90
60860;DHT22;46694;54.382;9.708;2024-02-26T13:16:14;9.00;99.90
60860;DHT22;46694;54.382;9.708;2024-02-26T13:18:40;9.00;99.90
60860;DHT22;46694;54.382;9.708;2024-02-26T13:21:13;9.00;99.90
60860;DHT22;46694;54.382;9.708;2024-02-26T13:23:43;9.00;99.90
60860;DHT22;46694;54.382;9.708;2024-02-26T13:26:14;8.90;99.90
60860;DHT22;46694;54.382;9.708;2024-02-26T13:29:02;8.80;99.90
60860;DHT22;46694;54.382;9.708;2024-02-26T13:31:32;8.80;99.90
60860;DHT22;46694;54.382;9.708;2024-02-26T13:34:05;8.70;99.90
60860;DHT22;46694;54.382;9.708;2024-02-26T13:36:31;8.70;99.90
60860;DHT22;46694;54.382;9.708;2024-02-26T13:38:56;8.70;99.90
60860;DHT22;46694;54.382;9.708;2024-02-26T13:41:23;8.70;99.90
60860;DHT22;46694;54.382;9.708;2024-02-26T13:43:49;8.80;99.90
60860;DHT22;46694;54.382;9.708;2024-02-26T13:46:15;8.80;99.90
60860;DHT22;46694;54.382;9.708;2024-02-26T13:48:42;8.80;99.90
60860;DHT22;46694;54.382;9.708;2024-02-26T13:51:09;8.80;99.90
60860;DHT22;46694;54.382;9.708;2024-02-26T13:53:35;8.80;99.90
60860;DHT22;46694;54.382;9.708;2024-02-26T13:56:01;8.70;99.90
60860;DHT22;46694;54.382;9.708;2024-02-26T13:58:29;8.70;99.90
60860;DHT22;46694;54.382;9.708;2024-02-26T14:00:55;8.70;99.90
60860;DHT22;46694;54.382;9.708;2024-02-26T14:03:22;8.70;99.90
60860;DHT22;46694;54.382;9.708;2024-02-26T14:05:48;8.70;99.90
60860;DHT22;46694;54.382;9.708;2024-02-26T14:08:14;8.80;99.90
60860;DHT22;46694;54.382;9.708;2024-02-26T14:10:40;8.80;99.90
60860;DHT22;46694;54.382;9.708;2024-02-26T14:13:06;8.80;99.90
60860;DHT22;46694;54.382;9.708;2024-02-26T14:15:33;8.80;99.90
60860;DHT22;46694;54.382;9.708;2024-02-26T14:18:01;8.80;99.90
60860;DHT22;46694;54.382;9.708;2024-02-26T14:20:28;8.80;99.90
60860;DHT22;46694;54.382;9.708;2024-02-26T14:22:54;8.80;99.90
60860;DHT22;46694;54.382;9.708;2024-02-26T14:25:21;8.80;99.90
60860;DHT22;46694;54.382;9.708;2024-02-26T14:27:50;8.80;99.90
60860;DHT22;46694;54.382;9.708;2024-02-26T14:30:16;8.80;99.90
60860;DHT22;46694;54.382;9.708;2024-02-26T14:32:41;8.80;99.90
60860;DHT22;46694;54.382;9.708;2024-02-26T14:35:08;8.70;99.90
60860;DHT22;46694;54.382;9.708;2024-02-26T14:37:35;8.70;99.90
60860;DHT22;46694;54.382;9.708;2024-02-26T14:40:02;8.70;99.90
60860;DHT22;46694;54.382;9.708;2024-02-26T14:42:29;8.70;99.90
60860;DHT22;46694;54.382;9.708;2024-02-26T14:44:55;8.70;99.90
60860;DHT22;46694;54.382;9.708;2024-02-26T14:47:21;8.70;99.90
60860;DHT22;46694;54.382;9.708;2024-02-26T14:49:47;8.70;99.90
60860;DHT22;46694;54.382;9.708;2024-02-26T14:52:14;8.60;99.90
60860;DHT22;46694;54.382;9.708;2024-02-26T14:54:40;8.60;99.90
60860;DHT22;46694;54.382;9.708;2024-02-26T14:57:06;8.60;99.90
60860;DHT22;46694;54.382;9.708;2024-02-26T14:59:33;8.50;99.90
60860;DHT22;46694;54.382;9.708;2024-02-26T15:01:59;8.50;99.90
60860;DHT22;46694;54.382;9.708;2024-02-26T15:04:26;8.50;99.90
60860;DHT22;46694;54.382;9.708;2024-02-26T15:06:52;8.50;99.90
60860;DHT22;46694;54.382;9.708;2024-02-26T15:09:18;8.40;99.90
60860;DHT22;46694;54.382;9.708;2024-02-26T15:11:43;8.40;99.90
60860;DHT22;46694;54.382;9.708;2024-02-26T15:14:10;8.30;99.90
60860;DHT22;46694;54.382;9.708;2024-02-26T15:16:36;8.30;99.90
60860;DHT22;46694;54.382;9.708;2024-02-26T15:19:02;8.30;99.90
60860;DHT22;46694;54.382;9.708;2024-02-26T15:21:29;8.20;99.90
60860;DHT22;46694;54.382;9.708;2024-02-26T15:23:55;8.20;99.90
60860;DHT22;46694;54.382;9.708;2024-02-26T15:26:21;8.20;99.90
60860;DHT22;46694;54.382;9.708;2024-02-26T15:28:47;8.20;99.90
60860;DHT22;46694;54.382;9.708;2024-02-26T15:31:16;8.20;99.90
60860;DHT22;46694;54.382;9.708;2024-02-26T15:33:42;8.20;99.90
60860;DHT22;46694;54.382;9.708;2024-02-26T15:36:08;8.10;99.90
60860;DHT22;46694;54.382;9.708;2024-02-26T15:38:36;8.10;99.90
60860;DHT22;46694;54.382;9.708;2024-02-26T15:41:02;8.00;99.90
60860;DHT22;46694;54.382;9.708;2024-02-26T15:43:28;7.90;99.90
60860;DHT22;46694;54.382;9.708;2024-02-26T15:45:54;7.80;99.90
60860;DHT22;46694;54.382;9.708;2024-02-26T15:48:19;7.70;99.90
60860;DHT22;46694;54.382;9.708;2024-02-26T15:50:45;7.70;99.90
60860;DHT22;46694;54.382;9.708;2024-02-26T15:53:11;7.70;99.90
60860;DHT22;46694;54.382;9.708;2024-02-26T15:55:37;7.60;99.90
60860;DHT22;46694;54.382;9.708;2024-02-26T15:58:03;7.60;99.90